Biggs Army Air Field (Fort Bliss)
KBIF : now visible

Airfield :











YOU CAN JOIN US ON...

 
LOGIN :

Register | Disclaimer

   EN    FR    IT 

 









Legend :    VFR   Marginal VFR   IFR   Intensive IFR   Very Intensive IFR
Visi :
Ceiling :
>= 8 km
>= 3000ft
5 to 8 km
1000 to 3000 ft
1500m to 5 km
500 to 1000 ft
800 to 1500m
200 to 500 ft
< 800m
< 200 ft
Symbols :   Thunderstorms  Fog  Heavy snow  Heavy precipitations  Wind > 20 kt






- Airport Elevation : 3946 ft


KBIF - Biggs Army Air Field (Fort Bliss)

CURRENT METAR :
  • 181158Z AUTO 01007KT 10SM CLR 05/M02 A3025 RMK AO2 SLP216 T00501018 10140 20038 52016 $

EXPIRED METARs :
  • 181058Z AUTO 35007KT 10SM CLR 04/M01 A3023 RMK AO2 SLP210 T00381009 $
  • 180958Z AUTO 02005KT 10SM CLR 05/M01 A3023 RMK AO2 SLP210 T00461007 $

TAF TAF KBIF
Valid from the 18 at 06:00 until the 19 at 12:00 UTC


180603Z 1806/1912 VRB06KT 9999 SKC QNH3013INS
TEMPO 1806/1809 28012G20KT 510004
BECMG 1817/1818 09012G18KT 9999 SKC QNH3025INS
BECMG 1823/1824 VRB06KT 9999 SKC QNH3026INS TX15/1821Z TN00/1813Z



MET'MAP, your aeronautical weather chart ! - Copyright ORBIFLY December 2007 - Disclaimer

ORBIFLY MET'MAP TEAM :

Programming & Development : Alexandra Zaïnal
Concept & original design : Baudouin d'Aumeries
Assistance for programming : Marc-Olivier Méhu
Technical & hardware support : Manuel Goepfert

Contact : metmap@orbifly.com




SOURCES & CREDITS :

   NOAA       Earth
Advisory